createdAt,value
2022-09-14T00:01:32.062Z,11.60
2022-09-14T00:04:03.340Z,11.60
2022-09-14T00:06:31.024Z,11.60
2022-09-14T00:09:01.113Z,11.60
2022-09-14T00:11:30.504Z,11.60
2022-09-14T00:13:59.290Z,11.60
2022-09-14T00:16:33.139Z,11.60
2022-09-14T00:19:06.368Z,11.70
2022-09-14T00:21:36.131Z,11.70
2022-09-14T00:24:04.843Z,11.70
2022-09-14T00:26:32.198Z,11.80
2022-09-14T00:29:00.518Z,11.80
2022-09-14T00:31:27.655Z,11.80
2022-09-14T00:33:54.896Z,11.90
2022-09-14T00:36:27.947Z,11.90
2022-09-14T00:39:00.916Z,11.90
2022-09-14T00:41:32.193Z,11.90
2022-09-14T00:44:01.706Z,11.90
2022-09-14T00:46:32.567Z,11.90
2022-09-14T00:49:02.142Z,12.00
2022-09-14T00:51:33.089Z,12.00
2022-09-14T00:54:04.459Z,12.00
2022-09-14T00:56:31.832Z,12.10
2022-09-14T00:59:02.343Z,12.20
2022-09-14T01:01:29.515Z,12.20
2022-09-14T01:03:56.595Z,12.30
2022-09-14T01:06:36.921Z,12.30
2022-09-14T01:09:30.090Z,12.30
2022-09-14T01:12:30.031Z,12.30
2022-09-14T01:15:08.662Z,12.30
2022-09-14T01:17:59.772Z,12.30
2022-09-14T01:20:39.618Z,12.30
2022-09-14T01:23:24.757Z,12.30
2022-09-14T01:26:12.928Z,12.30
2022-09-14T01:28:54.822Z,12.20
2022-09-14T01:31:32.569Z,12.20
2022-09-14T01:34:19.879Z,12.20
2022-09-14T01:36:52.969Z,12.10
2022-09-14T01:39:22.330Z,12.10
2022-09-14T01:41:51.907Z,12.10
2022-09-14T01:44:35.370Z,12.10
2022-09-14T01:47:23.550Z,12.10
2022-09-14T01:49:55.909Z,12.10
2022-09-14T01:52:31.968Z,12.10
2022-09-14T01:55:10.117Z,12.10
2022-09-14T01:57:42.745Z,12.10
2022-09-14T02:00:14.700Z,12.10
2022-09-14T02:02:47.841Z,12.00
2022-09-14T02:05:23.947Z,12.00
2022-09-14T02:07:51.211Z,12.00
2022-09-14T02:10:18.631Z,12.00
2022-09-14T02:12:46.542Z,12.00
2022-09-14T02:15:15.355Z,11.90
2022-09-14T02:17:43.436Z,11.90
2022-09-14T02:20:21.821Z,11.90
2022-09-14T02:22:50.435Z,11.90
2022-09-14T02:25:17.961Z,11.80
2022-09-14T02:27:45.099Z,11.80
2022-09-14T02:30:13.805Z,11.80
2022-09-14T02:33:13.398Z,11.80
2022-09-14T02:35:48.959Z,11.80
2022-09-14T02:38:50.528Z,11.70
2022-09-14T02:41:39.878Z,11.70
2022-09-14T02:44:27.134Z,11.70
2022-09-14T02:47:33.100Z,11.60
2022-09-14T02:50:03.353Z,11.60
2022-09-14T02:52:41.036Z,11.60
2022-09-14T02:55:12.760Z,11.60
2022-09-14T02:57:59.390Z,11.60
2022-09-14T03:00:27.841Z,11.60
2022-09-14T03:02:54.911Z,11.50
2022-09-14T03:05:22.150Z,11.50
2022-09-14T03:07:49.600Z,11.50
2022-09-14T03:10:17.023Z,11.50
2022-09-14T03:12:44.114Z,11.40
2022-09-14T03:15:11.621Z,11.40
2022-09-14T03:17:38.751Z,11.30
2022-09-14T03:20:06.347Z,11.30
2022-09-14T03:22:33.745Z,11.30
2022-09-14T03:25:00.784Z,11.30
2022-09-14T03:27:27.979Z,11.30
2022-09-14T03:29:55.121Z,11.30
2022-09-14T03:32:22.133Z,11.20
2022-09-14T03:34:49.266Z,11.20
2022-09-14T03:37:17.032Z,11.20
2022-09-14T03:39:44.115Z,11.20
2022-09-14T03:42:11.153Z,11.20
2022-09-14T03:44:38.245Z,11.20
2022-09-14T03:47:05.436Z,11.10
2022-09-14T03:49:32.470Z,11.10
2022-09-14T03:51:59.976Z,11.10
2022-09-14T03:54:27.674Z,11.10
2022-09-14T03:56:54.721Z,11.10
2022-09-14T03:59:22.232Z,11.10
2022-09-14T04:01:49.408Z,11.10
2022-09-14T04:04:16.633Z,11.20
2022-09-14T04:06:43.767Z,11.20
2022-09-14T04:09:10.974Z,11.20
2022-09-14T04:11:38.041Z,11.20
2022-09-14T04:14:09.343Z,11.20
2022-09-14T04:16:36.465Z,11.20
2022-09-14T04:19:03.902Z,11.20
2022-09-14T04:21:31.849Z,11.10
2022-09-14T04:24:16.204Z,11.10
2022-09-14T04:26:45.104Z,11.10
2022-09-14T04:29:12.970Z,11.10
2022-09-14T04:31:40.242Z,11.20
2022-09-14T04:34:07.658Z,11.20
2022-09-14T04:36:34.776Z,11.20
2022-09-14T04:39:03.514Z,11.20
2022-09-14T04:41:31.870Z,11.30
2022-09-14T04:43:59.719Z,11.20
2022-09-14T04:46:32.886Z,11.30
2022-09-14T04:49:00.058Z,11.30
2022-09-14T04:51:30.116Z,11.30
2022-09-14T04:53:59.502Z,11.20
2022-09-14T04:56:28.415Z,11.20
2022-09-14T04:58:58.999Z,11.10
2022-09-14T05:01:29.063Z,11.00
2022-09-14T05:03:56.995Z,11.00
2022-09-14T05:06:28.039Z,10.90
2022-09-14T05:08:55.667Z,10.80
2022-09-14T05:11:24.782Z,10.80
2022-09-14T05:13:52.378Z,10.70
2022-09-14T05:16:25.372Z,10.60
2022-09-14T05:18:55.863Z,10.60
2022-09-14T05:21:24.077Z,10.60
2022-09-14T05:23:59.891Z,10.60
2022-09-14T05:26:31.589Z,10.70
2022-09-14T05:29:03.657Z,10.80
2022-09-14T05:31:32.477Z,10.80
2022-09-14T05:34:00.074Z,10.90
2022-09-14T05:36:27.529Z,10.90
2022-09-14T05:38:54.971Z,11.00
2022-09-14T05:41:24.554Z,11.10
2022-09-14T05:43:51.716Z,11.00
2022-09-14T05:46:25.325Z,11.00
2022-09-14T05:48:52.916Z,11.00
2022-09-14T05:51:22.932Z,11.00
2022-09-14T05:53:55.302Z,11.00
2022-09-14T05:56:24.639Z,11.10
2022-09-14T05:58:53.183Z,11.10
2022-09-14T06:01:23.102Z,11.20
2022-09-14T06:03:53.247Z,11.20
2022-09-14T06:06:21.399Z,11.20
2022-09-14T06:08:52.713Z,11.20
2022-09-14T06:11:29.525Z,11.30
2022-09-14T06:14:03.099Z,11.30
2022-09-14T06:16:30.420Z,11.30
2022-09-14T06:18:58.689Z,11.40
2022-09-14T06:21:30.429Z,11.40
2022-09-14T06:23:57.652Z,11.40
2022-09-14T06:26:27.393Z,11.50
2022-09-14T06:28:57.732Z,11.50
2022-09-14T06:31:25.675Z,11.50
2022-09-14T06:33:54.123Z,11.50
2022-09-14T06:36:24.273Z,11.60
2022-09-14T06:38:52.635Z,11.60
2022-09-14T06:41:24.007Z,11.70
2022-09-14T06:43:51.223Z,11.70
2022-09-14T06:46:24.465Z,11.80
2022-09-14T06:48:57.713Z,11.80
2022-09-14T06:51:40.532Z,11.90
2022-09-14T06:54:12.174Z,12.00
2022-09-14T06:56:41.214Z,12.10
2022-09-14T06:59:10.552Z,12.10
2022-09-14T07:01:38.505Z,12.10
2022-09-14T07:04:07.410Z,12.20
2022-09-14T07:06:42.432Z,12.30
2022-09-14T07:09:12.559Z,12.30
2022-09-14T07:11:40.384Z,12.30
2022-09-14T07:14:08.320Z,12.30
2022-09-14T07:16:37.020Z,12.40
2022-09-14T07:19:09.517Z,12.40
2022-09-14T07:21:40.676Z,12.40
2022-09-14T07:24:07.982Z,12.50
2022-09-14T07:26:41.981Z,12.50
2022-09-14T07:29:14.886Z,12.50
2022-09-14T07:31:42.224Z,12.60
2022-09-14T07:34:10.258Z,12.70
2022-09-14T07:36:38.429Z,12.80
2022-09-14T07:39:10.552Z,12.90
2022-09-14T07:41:38.207Z,13.00
2022-09-14T07:44:08.005Z,13.00
2022-09-14T07:46:43.536Z,13.10
2022-09-14T07:49:11.498Z,13.20
2022-09-14T07:51:40.286Z,13.10
2022-09-14T07:54:08.834Z,13.20
2022-09-14T07:56:35.886Z,13.20
2022-09-14T07:59:33.436Z,13.20
2022-09-14T08:01:52.842Z,13.20
2022-09-14T08:04:20.207Z,13.20
2022-09-14T08:06:47.298Z,13.30
2022-09-14T08:09:14.580Z,13.30
2022-09-14T08:11:41.792Z,13.40
2022-09-14T08:14:11.796Z,13.40
2022-09-14T08:16:40.788Z,13.40
2022-09-14T08:19:17.249Z,13.50
2022-09-14T08:21:47.324Z,13.50
2022-09-14T08:24:20.695Z,13.40
2022-09-14T08:26:49.247Z,13.50
2022-09-14T08:29:18.376Z,13.60
2022-09-14T08:31:47.256Z,13.60
2022-09-14T08:34:15.965Z,13.70
2022-09-14T08:36:44.047Z,13.80
2022-09-14T08:39:14.031Z,13.90
2022-09-14T08:41:44.063Z,14.00
2022-09-14T08:44:26.147Z,14.10
2022-09-14T08:47:01.362Z,14.20
2022-09-14T08:49:36.872Z,14.30
2022-09-14T08:52:04.578Z,14.30
2022-09-14T08:54:37.327Z,14.30
2022-09-14T08:57:18.488Z,14.60
2022-09-14T09:00:13.445Z,15.00
2022-09-14T09:02:46.588Z,15.30
2022-09-14T09:05:49.027Z,15.70
2022-09-14T09:08:41.836Z,15.90
2022-09-14T09:11:21.509Z,15.80
2022-09-14T09:13:50.888Z,15.50
2022-09-14T09:16:22.341Z,15.20
2022-09-14T09:18:53.660Z,14.90
2022-09-14T09:21:35.768Z,14.80
2022-09-14T09:24:17.120Z,14.80
2022-09-14T09:26:50.390Z,14.80
2022-09-14T09:29:18.632Z,14.80
2022-09-14T09:32:06.299Z,14.80
2022-09-14T09:34:56.516Z,14.50
2022-09-14T09:38:02.352Z,14.20
2022-09-14T09:40:36.409Z,14.20
2022-09-14T09:43:08.058Z,14.20
2022-09-14T09:46:01.399Z,14.20
2022-09-14T09:48:40.571Z,14.30
2022-09-14T09:51:12.228Z,14.40
2022-09-14T09:53:52.222Z,14.40
2022-09-14T09:56:41.494Z,14.40
2022-09-14T09:59:37.090Z,14.40
2022-09-14T10:02:29.271Z,14.40
2022-09-14T10:05:04.190Z,14.40
2022-09-14T10:07:39.600Z,14.50
2022-09-14T10:10:15.063Z,14.70
2022-09-14T10:12:54.327Z,14.70
2022-09-14T10:15:31.900Z,14.70
2022-09-14T10:18:10.887Z,14.70
2022-09-14T10:20:39.189Z,14.70
2022-09-14T10:23:18.397Z,14.60
2022-09-14T10:25:46.894Z,14.70
2022-09-14T10:28:34.275Z,14.70
2022-09-14T10:31:09.159Z,14.80
2022-09-14T10:33:36.879Z,14.90
2022-09-14T10:36:10.021Z,15.00
2022-09-14T10:38:48.668Z,15.30
2022-09-14T10:41:34.301Z,15.40
2022-09-14T10:44:22.881Z,15.40
2022-09-14T10:47:40.714Z,15.40
2022-09-14T10:50:41.997Z,15.60
2022-09-14T10:53:31.454Z,16.10
2022-09-14T10:56:25.483Z,16.30
2022-09-14T10:59:25.289Z,16.60
2022-09-14T11:02:14.282Z,16.90
2022-09-14T11:05:12.586Z,16.90
2022-09-14T11:08:00.746Z,16.60
2022-09-14T11:10:42.576Z,16.30
2022-09-14T11:13:31.070Z,16.00
2022-09-14T11:16:15.918Z,15.80
2022-09-14T11:18:58.503Z,15.80
2022-09-14T11:21:40.812Z,15.80
2022-09-14T11:24:40.508Z,15.80
2022-09-14T11:27:21.800Z,15.90
2022-09-14T11:30:01.413Z,15.90
2022-09-14T11:32:51.885Z,15.80
2022-09-14T11:35:53.441Z,15.80
2022-09-14T11:38:25.758Z,15.60
2022-09-14T11:40:56.532Z,15.60
2022-09-14T11:43:31.417Z,15.70
2022-09-14T11:46:10.294Z,15.70
2022-09-14T11:48:55.251Z,15.90
2022-09-14T11:51:56.401Z,15.90
2022-09-14T11:54:24.792Z,16.00
2022-09-14T11:56:58.790Z,16.00
2022-09-14T11:59:41.440Z,16.00
2022-09-14T12:02:27.770Z,16.10
2022-09-14T12:05:07.409Z,16.50
2022-09-14T12:07:51.699Z,16.70
2022-09-14T12:10:21.753Z,17.10
2022-09-14T12:13:07.193Z,17.50
2022-09-14T12:15:39.624Z,17.50
2022-09-14T12:18:09.334Z,17.40
2022-09-14T12:20:43.070Z,17.10
2022-09-14T12:23:37.689Z,16.80
2022-09-14T12:26:12.355Z,16.70
2022-09-14T12:28:48.203Z,16.80
2022-09-14T12:31:49.456Z,16.90
2022-09-14T12:34:18.822Z,17.20
2022-09-14T12:36:45.844Z,17.60
2022-09-14T12:39:27.282Z,18.10
2022-09-14T12:41:55.352Z,18.40
2022-09-14T12:44:52.669Z,18.60
2022-09-14T12:47:26.115Z,19.10
2022-09-14T12:49:57.731Z,19.40
2022-09-14T12:53:03.467Z,19.20
2022-09-14T12:55:47.481Z,19.10
2022-09-14T12:58:44.062Z,19.10
2022-09-14T13:01:14.004Z,19.10
2022-09-14T13:03:53.010Z,19.20
2022-09-14T13:06:23.504Z,19.40
2022-09-14T13:08:55.624Z,19.60
2022-09-14T13:11:33.391Z,19.80
2022-09-14T13:14:02.100Z,20.00
2022-09-14T13:16:39.846Z,20.00
2022-09-14T13:19:21.689Z,19.40
2022-09-14T13:21:54.676Z,18.70
2022-09-14T13:24:31.370Z,18.10
2022-09-14T13:27:02.152Z,17.70
2022-09-14T13:29:29.896Z,17.30
2022-09-14T13:32:03.247Z,16.90
2022-09-14T13:34:34.851Z,16.60
2022-09-14T13:37:04.521Z,16.50
2022-09-14T13:39:42.007Z,16.70
2022-09-14T13:42:10.334Z,16.80
2022-09-14T13:44:48.109Z,16.80
2022-09-14T13:47:19.085Z,16.70
2022-09-14T13:49:48.168Z,16.60
2022-09-14T13:52:43.603Z,16.40
2022-09-14T13:55:20.374Z,16.30
2022-09-14T13:58:11.614Z,16.30
2022-09-14T14:00:55.658Z,16.10
2022-09-14T14:03:33.822Z,16.00
2022-09-14T14:06:25.336Z,16.00
2022-09-14T14:09:00.566Z,15.80
2022-09-14T14:11:35.595Z,15.70
2022-09-14T14:14:19.364Z,15.70
2022-09-14T14:17:11.830Z,15.60
2022-09-14T14:19:43.850Z,15.60
2022-09-14T14:22:34.658Z,15.60
2022-09-14T14:25:19.257Z,15.60
2022-09-14T14:27:48.329Z,15.50
2022-09-14T14:30:20.034Z,15.30
2022-09-14T14:32:51.367Z,15.20
2022-09-14T14:35:22.883Z,15.20
2022-09-14T14:37:50.852Z,15.10
2022-09-14T14:40:19.841Z,15.20
2022-09-14T14:42:47.961Z,15.30
2022-09-14T14:45:36.347Z,15.30
2022-09-14T14:48:04.844Z,15.30
2022-09-14T14:50:34.667Z,15.20
2022-09-14T14:53:05.527Z,15.10
2022-09-14T14:55:33.269Z,15.10
2022-09-14T14:58:05.345Z,15.10
2022-09-14T15:00:34.938Z,15.10
2022-09-14T15:03:03.140Z,15.00
2022-09-14T15:05:31.348Z,15.00
2022-09-14T15:07:58.980Z,15.00
2022-09-14T15:10:27.947Z,15.10
2022-09-14T15:12:56.473Z,15.10
2022-09-14T15:15:26.784Z,15.20
2022-09-14T15:18:02.456Z,15.20
2022-09-14T15:20:29.774Z,15.30
2022-09-14T15:22:57.159Z,15.30
2022-09-14T15:25:26.653Z,15.40
2022-09-14T15:27:53.748Z,15.40
2022-09-14T15:30:22.197Z,15.40
2022-09-14T15:32:49.285Z,15.30
2022-09-14T15:35:16.574Z,15.20
2022-09-14T15:37:43.792Z,15.20
2022-09-14T15:40:11.971Z,15.20
2022-09-14T15:42:39.386Z,15.20
2022-09-14T15:45:09.585Z,15.10
2022-09-14T15:47:36.910Z,14.90
2022-09-14T15:50:06.651Z,14.70
2022-09-14T15:52:38.302Z,14.50
2022-09-14T15:55:11.260Z,14.60
2022-09-14T15:57:39.360Z,14.60
2022-09-14T16:00:12.056Z,14.70
2022-09-14T16:02:43.562Z,14.80
2022-09-14T16:05:11.113Z,15.00
2022-09-14T16:07:38.203Z,15.00
2022-09-14T16:10:05.856Z,14.90
2022-09-14T16:12:33.443Z,14.80
2022-09-14T16:15:00.686Z,14.70
2022-09-14T16:17:27.697Z,14.60
2022-09-14T16:19:54.879Z,14.50
2022-09-14T16:22:22.113Z,14.40
2022-09-14T16:24:50.895Z,14.30
2022-09-14T16:27:19.076Z,14.20
2022-09-14T16:29:46.304Z,14.10
2022-09-14T16:32:13.668Z,13.90
2022-09-14T16:34:40.777Z,13.80
2022-09-14T16:37:07.870Z,13.80
2022-09-14T16:39:35.209Z,13.70
2022-09-14T16:42:03.600Z,13.60
2022-09-14T16:44:30.977Z,13.60
2022-09-14T16:46:58.769Z,13.60
2022-09-14T16:49:28.251Z,13.50
2022-09-14T16:51:56.747Z,13.50
2022-09-14T16:54:25.842Z,13.50
2022-09-14T16:56:58.246Z,13.50
2022-09-14T16:59:25.856Z,13.50
2022-09-14T17:01:55.042Z,13.40
2022-09-14T17:04:23.744Z,13.30
2022-09-14T17:06:52.843Z,13.20
2022-09-14T17:09:23.483Z,13.10
2022-09-14T17:11:50.667Z,13.00
2022-09-14T17:14:20.117Z,12.90
2022-09-14T17:16:47.778Z,12.90
2022-09-14T17:19:15.677Z,12.80
2022-09-14T17:21:44.462Z,12.80
2022-09-14T17:24:13.676Z,12.70
2022-09-14T17:26:41.708Z,12.70
2022-09-14T17:29:12.362Z,12.60
2022-09-14T17:31:42.128Z,12.70
2022-09-14T17:34:11.068Z,12.60
2022-09-14T17:36:38.555Z,12.70
2022-09-14T17:39:11.576Z,12.60
2022-09-14T17:41:40.658Z,12.70
2022-09-14T17:44:10.524Z,12.70
2022-09-14T17:46:48.278Z,12.60
2022-09-14T17:49:19.775Z,12.70
2022-09-14T17:51:47.431Z,12.60
2022-09-14T17:54:16.242Z,12.50
2022-09-14T17:56:43.309Z,12.40
2022-09-14T17:59:17.658Z,12.40
2022-09-14T18:01:44.934Z,12.40
2022-09-14T18:04:13.397Z,12.30
2022-09-14T18:06:44.825Z,12.20
2022-09-14T18:09:18.251Z,12.20
2022-09-14T18:11:46.130Z,12.10
2022-09-14T18:14:15.849Z,12.00
2022-09-14T18:16:44.217Z,11.90
2022-09-14T18:19:13.159Z,11.90
2022-09-14T18:21:40.909Z,11.80
2022-09-14T18:24:08.484Z,11.80
2022-09-14T18:26:36.085Z,11.70
2022-09-14T18:29:03.900Z,11.70
2022-09-14T18:31:31.096Z,11.60
2022-09-14T18:34:00.436Z,11.50
2022-09-14T18:36:29.663Z,11.50
2022-09-14T18:38:58.156Z,11.50
2022-09-14T18:41:25.799Z,11.50
2022-09-14T18:43:53.781Z,11.40
2022-09-14T18:46:25.714Z,11.50
2022-09-14T18:49:02.552Z,11.40
2022-09-14T18:51:30.422Z,11.40
2022-09-14T18:54:06.415Z,11.40
2022-09-14T18:56:35.601Z,11.40
2022-09-14T18:59:04.510Z,11.50
2022-09-14T19:01:34.514Z,11.50
2022-09-14T19:04:03.957Z,11.40
2022-09-14T19:06:31.294Z,11.40
2022-09-14T19:08:58.568Z,11.40
2022-09-14T19:11:27.525Z,11.40
2022-09-14T19:14:10.511Z,11.40
2022-09-14T19:16:41.518Z,11.40
2022-09-14T19:19:11.554Z,11.30
2022-09-14T19:21:38.801Z,11.30
2022-09-14T19:24:09.868Z,11.30
2022-09-14T19:26:45.317Z,11.30
2022-09-14T19:29:23.158Z,11.30
2022-09-14T19:31:52.222Z,11.30
2022-09-14T19:34:23.925Z,11.30
2022-09-14T19:36:51.260Z,11.30
2022-09-14T19:39:20.854Z,11.30
2022-09-14T19:41:48.049Z,11.30
2022-09-14T19:44:15.858Z,11.30
2022-09-14T19:46:43.566Z,11.40
2022-09-14T19:49:23.156Z,11.40
2022-09-14T19:51:53.211Z,11.40
2022-09-14T19:54:20.649Z,11.40
2022-09-14T19:56:47.905Z,11.40
2022-09-14T19:59:18.041Z,11.40
2022-09-14T20:01:45.623Z,11.30
2022-09-14T20:04:13.821Z,11.20
2022-09-14T20:06:44.037Z,11.20
2022-09-14T20:09:18.033Z,11.10
2022-09-14T20:11:49.851Z,11.00
2022-09-14T20:14:19.470Z,10.90
2022-09-14T20:16:49.953Z,10.80
2022-09-14T20:19:19.722Z,10.80
2022-09-14T20:21:49.152Z,10.70
2022-09-14T20:24:25.769Z,10.70
2022-09-14T20:26:57.341Z,10.70
2022-09-14T20:29:28.609Z,10.80
2022-09-14T20:31:56.028Z,10.70
2022-09-14T20:34:23.580Z,10.70
2022-09-14T20:36:52.610Z,10.60
2022-09-14T20:39:22.176Z,10.60
2022-09-14T20:41:50.117Z,10.60
2022-09-14T20:44:22.353Z,10.50
2022-09-14T20:46:50.522Z,10.50
2022-09-14T20:49:20.847Z,10.40
2022-09-14T20:51:48.190Z,10.40
2022-09-14T20:54:16.973Z,10.50
2022-09-14T20:56:46.130Z,10.50
2022-09-14T20:59:16.623Z,10.40
2022-09-14T21:01:45.567Z,10.40
2022-09-14T21:04:16.242Z,10.40
2022-09-14T21:06:46.492Z,10.50
2022-09-14T21:09:15.385Z,10.40
2022-09-14T21:11:42.656Z,10.40
2022-09-14T21:14:09.730Z,10.40
2022-09-14T21:16:44.154Z,10.40
2022-09-14T21:19:19.548Z,10.40
2022-09-14T21:21:47.057Z,10.40
2022-09-14T21:24:15.128Z,10.40
2022-09-14T21:26:46.974Z,10.50
2022-09-14T21:29:23.755Z,10.50
2022-09-14T21:31:51.516Z,10.60
2022-09-14T21:34:21.366Z,10.70
2022-09-14T21:36:50.924Z,10.70
2022-09-14T21:39:25.440Z,10.70
2022-09-14T21:41:58.809Z,10.70
2022-09-14T21:44:34.953Z,10.70
2022-09-14T21:47:03.145Z,10.70
2022-09-14T21:49:30.517Z,10.60
2022-09-14T21:51:57.711Z,10.60
2022-09-14T21:54:25.111Z,10.50
2022-09-14T21:56:53.157Z,10.50
2022-09-14T21:59:22.057Z,10.50
2022-09-14T22:01:49.979Z,10.40
2022-09-14T22:04:20.089Z,10.40
2022-09-14T22:06:54.037Z,10.30
2022-09-14T22:09:26.710Z,10.30
2022-09-14T22:11:54.138Z,10.20
2022-09-14T22:14:25.211Z,10.20
2022-09-14T22:16:52.362Z,10.10
2022-09-14T22:19:25.334Z,10.00
2022-09-14T22:21:53.138Z,10.00
2022-09-14T22:24:37.035Z,10.00
2022-09-14T22:27:09.710Z,10.00
2022-09-14T22:29:37.977Z,10.00
2022-09-14T22:32:07.278Z,9.90
2022-09-14T22:34:35.272Z,9.90
2022-09-14T22:37:02.581Z,9.90
2022-09-14T22:39:32.968Z,9.90
2022-09-14T22:42:00.113Z,9.90
2022-09-14T22:44:29.783Z,9.90
2022-09-14T22:46:57.035Z,9.90
2022-09-14T22:49:24.141Z,9.90
2022-09-14T22:51:54.284Z,9.90
2022-09-14T22:54:21.426Z,10.00
2022-09-14T22:56:51.264Z,9.90
2022-09-14T22:59:18.538Z,9.90
2022-09-14T23:01:47.381Z,9.90
2022-09-14T23:04:14.761Z,9.90
2022-09-14T23:06:46.175Z,9.90
2022-09-14T23:09:16.967Z,9.80
2022-09-14T23:11:46.840Z,9.90
2022-09-14T23:14:15.530Z,9.80
2022-09-14T23:16:45.183Z,9.90
2022-09-14T23:19:16.011Z,9.80
2022-09-14T23:21:45.594Z,9.80
2022-09-14T23:24:13.359Z,9.80
2022-09-14T23:26:40.800Z,9.80
2022-09-14T23:29:15.165Z,9.80
2022-09-14T23:31:45.571Z,9.90
2022-09-14T23:34:12.601Z,9.90
2022-09-14T23:36:42.196Z,10.00
2022-09-14T23:39:09.678Z,10.00
2022-09-14T23:41:36.730Z,10.00
2022-09-14T23:44:04.062Z,10.00
2022-09-14T23:46:31.100Z,10.10
2022-09-14T23:48:58.414Z,10.00
2022-09-14T23:51:25.576Z,10.00
2022-09-14T23:53:53.153Z,10.00
2022-09-14T23:56:20.559Z,9.90
2022-09-14T23:58:47.654Z,9.90
